Time;durP1;ratioP1;P1;durP2;ratioP2;P2;SDS_P1;SDS_P2;PMS_P1;PMS_P2;Temp;Humidity;BMP_temperature;BMP_pressure;BME280_temperature;BME280_humidity;BME280_pressure;Samples;Min_cycle;Max_cycle;Signal;HPM_P1;HPM_P2
2021/10/30 00:01:37;;;;;;;36.80;25.10;;;;;;;7.30;86.96;100888.02;115988;1205;23034;-65
2021/10/30 00:04:05;;;;;;;35.70;22.10;;;;;;;7.30;86.85;100885.35;115872;1205;138210;-64
2021/10/30 00:06:33;;;;;;;37.20;23.20;;;;;;;7.29;86.93;100888.31;116021;1205;22275;-64
2021/10/30 00:09:01;;;;;;;37.20;23.50;;;;;;;7.28;86.79;100885.55;116676;1199;138414;-65
2021/10/30 00:11:30;;;;;;;36.80;23.30;;;;;;;7.27;87.05;100878.73;116788;1199;22240;-65
2021/10/30 00:13:58;;;;;;;37.80;23.60;;;;;;;7.26;86.97;100880.95;116741;1198;139001;-64
2021/10/30 00:16:26;;;;;;;34.20;23.00;;;;;;;7.24;86.87;100882.27;116725;1199;22328;-65
2021/10/30 00:18:54;;;;;;;33.60;22.20;;;;;;;7.23;86.81;100884.93;116691;1199;22413;-64
2021/10/30 00:21:22;;;;;;;34.50;23.20;;;;;;;7.22;86.79;100878.05;116756;1193;139043;-65
2021/10/30 00:23:51;;;;;;;37.10;23.40;;;;;;;7.22;86.80;100879.17;116736;1199;22373;-65
2021/10/30 00:26:19;;;;;;;36.10;23.50;;;;;;;7.21;86.92;100875.11;116628;1198;137916;-64
2021/10/30 00:28:47;;;;;;;34.40;21.80;;;;;;;7.21;86.88;100873.19;116669;1199;22334;-64
2021/10/30 00:31:15;;;;;;;36.20;22.10;;;;;;;7.20;87.00;100871.35;116639;1199;22400;-63
2021/10/30 00:33:44;;;;;;;35.80;23.50;;;;;;;7.19;86.77;100875.67;116593;1199;138860;-64
2021/10/30 00:36:12;;;;;;;35.10;22.10;;;;;;;7.16;86.65;100874.79;116774;1198;22223;-64
2021/10/30 00:38:40;;;;;;;32.10;20.50;;;;;;;7.14;86.65;100878.77;116691;1198;137880;-64
2021/10/30 00:41:09;;;;;;;33.30;21.30;;;;;;;7.14;86.84;100873.94;116757;1198;22337;-64
2021/10/30 00:43:37;;;;;;;33.80;20.80;;;;;;;7.14;86.72;100874.65;116855;1198;22333;-64
2021/10/30 00:46:06;;;;;;;34.30;22.40;;;;;;;7.12;86.64;100876.35;116693;1198;138192;-64
2021/10/30 00:48:34;;;;;;;29.80;20.60;;;;;;;7.10;86.58;100875.63;116751;1199;22292;-64
2021/10/30 00:51:03;;;;;;;33.90;21.00;;;;;;;7.09;86.47;100878.87;116643;1198;139232;-64
2021/10/30 00:53:31;;;;;;;29.30;20.60;;;;;;;7.09;86.55;100879.28;116919;1198;22340;-64
2021/10/30 00:56:01;;;;;;;35.00;22.20;;;;;;;7.09;86.52;100879.49;116630;1199;138688;-64
2021/10/30 00:58:32;;;;;;;31.90;22.30;;;;;;;7.08;86.37;100876.83;116820;1198;22322;-64
2021/10/30 01:01:02;;;;;;;30.90;22.30;;;;;;;7.08;86.52;100879.08;116905;1198;22320;-64
2021/10/30 01:03:32;;;;;;;33.20;22.40;;;;;;;7.07;86.44;100873.86;116792;1198;138687;-64
2021/10/30 01:06:05;;;;;;;35.50;23.60;;;;;;;7.07;86.22;100875.89;116881;1198;22482;-64
2021/10/30 01:08:33;;;;;;;36.70;22.90;;;;;;;7.06;86.54;100875.80;116709;1198;141532;-64
2021/10/30 01:11:01;;;;;;;31.50;21.80;;;;;;;7.06;86.34;100869.84;116770;1199;22290;-64
2021/10/30 01:13:30;;;;;;;34.90;22.00;;;;;;;7.06;86.38;100877.88;116644;1200;22333;-65
2021/10/30 01:15:58;;;;;;;34.40;21.30;;;;;;;7.04;86.20;100878.95;116787;1198;139305;-65
2021/10/30 01:18:26;;;;;;;29.70;19.50;;;;;;;7.02;85.99;100877.14;116869;1198;22323;-65
2021/10/30 01:20:54;;;;;;;27.00;18.60;;;;;;;7.00;86.09;100881.85;116716;1198;137892;-65
2021/10/30 01:23:23;;;;;;;28.50;19.90;;;;;;;7.00;86.17;100879.39;116822;1199;22166;-64
2021/10/30 01:25:56;;;;;;;30.10;19.90;;;;;;;7.00;86.03;100879.96;116876;1184;22322;-64
2021/10/30 01:28:25;;;;;;;31.10;20.50;;;;;;;6.98;86.05;100872.28;116515;1199;137790;-65
2021/10/30 01:30:54;;;;;;;33.10;20.40;;;;;;;6.96;85.76;100873.81;116937;1198;22331;-64
2021/10/30 01:33:22;;;;;;;31.50;18.60;;;;;;;6.93;85.74;100867.25;116591;1193;137673;-65
2021/10/30 01:35:50;;;;;;;30.20;19.40;;;;;;;6.88;85.64;100863.30;116801;1198;22277;-64
2021/10/30 01:38:18;;;;;;;31.60;17.80;;;;;;;6.91;85.75;100872.48;116729;1198;138879;-64
2021/10/30 01:40:48;;;;;;;31.20;18.50;;;;;;;6.90;85.77;100873.34;113709;1199;22448;-58
2021/10/30 01:43:17;;;;;;;25.80;17.70;;;;;;;6.89;85.78;100875.63;112582;1198;25854;-58
2021/10/30 01:45:45;;;;;;;25.50;17.30;;;;;;;6.89;85.82;100877.30;116599;1193;138300;-59
2021/10/30 01:48:14;;;;;;;30.20;18.60;;;;;;;6.87;85.80;100874.23;116790;1198;22407;-58
2021/10/30 01:50:47;;;;;;;27.20;18.30;;;;;;;6.86;85.64;100872.27;116728;1198;137849;-59
2021/10/30 01:53:16;;;;;;;27.20;17.60;;;;;;;6.84;85.62;100876.27;116888;1198;22384;-58
2021/10/30 01:55:44;;;;;;;25.10;17.30;;;;;;;6.83;85.81;100879.09;116917;1198;22223;-58
2021/10/30 01:58:12;;;;;;;25.10;17.40;;;;;;;6.83;85.79;100878.42;116760;1197;138030;-58
2021/10/30 02:00:42;;;;;;;29.80;18.30;;;;;;;6.82;85.68;100879.79;116744;1199;22201;-58
2021/10/30 02:03:11;;;;;;;29.20;18.30;;;;;;;6.81;85.83;100881.90;116694;1198;139203;-58
2021/10/30 02:05:39;;;;;;;28.10;17.70;;;;;;;6.81;85.83;100878.61;116703;1199;23236;-58
2021/10/30 02:08:07;;;;;;;26.90;17.80;;;;;;;6.82;85.81;100881.91;116761;1198;138403;-58
2021/10/30 02:10:47;;;;;;;28.30;19.00;;;;;;;6.83;86.22;100882.17;116899;1198;22385;-58
2021/10/30 02:13:15;;;;;;;26.60;17.60;;;;;;;6.84;86.28;100877.55;116860;1198;22358;-58
2021/10/30 02:15:45;;;;;;;28.80;17.40;;;;;;;6.85;86.26;100882.77;116759;1198;138782;-58
2021/10/30 02:18:18;;;;;;;29.30;18.70;;;;;;;6.87;86.29;100879.28;116726;1199;22314;-58
2021/10/30 02:20:46;;;;;;;25.90;18.10;;;;;;;6.88;86.35;100876.21;116777;1198;138462;-58
2021/10/30 02:23:14;;;;;;;31.90;19.60;;;;;;;6.90;86.49;100884.77;116925;1193;22312;-59
2021/10/30 02:25:43;;;;;;;24.90;17.10;;;;;;;6.91;86.40;100885.45;116645;1200;23988;-59
2021/10/30 02:28:11;;;;;;;28.60;17.70;;;;;;;6.93;86.38;100886.89;116834;1198;138751;-59
2021/10/30 02:30:39;;;;;;;29.80;17.90;;;;;;;6.94;86.61;100888.98;116718;1199;23211;-59
2021/10/30 02:33:09;;;;;;;26.10;17.80;;;;;;;6.97;86.78;100896.79;116706;1198;138958;-59
2021/10/30 02:35:37;;;;;;;25.10;17.80;;;;;;;6.98;86.61;100898.01;116880;1193;22161;-58
2021/10/30 02:38:05;;;;;;;27.50;18.30;;;;;;;7.01;86.83;100898.65;116863;1198;22226;-58
2021/10/30 02:40:33;;;;;;;26.10;17.40;;;;;;;7.02;86.58;100900.45;116617;1199;138012;-64
2021/10/30 02:43:02;;;;;;;26.00;17.40;;;;;;;7.03;86.84;100899.88;116864;1198;22374;-65
2021/10/30 02:45:31;;;;;;;23.20;17.00;;;;;;;7.04;86.66;100899.84;116692;1198;138007;-65
2021/10/30 02:48:01;;;;;;;24.30;16.60;;;;;;;7.04;86.69;100898.34;116858;1197;22454;-65
2021/10/30 02:50:29;;;;;;;25.00;17.10;;;;;;;7.04;86.73;100899.84;116751;1198;138375;-65
2021/10/30 02:52:57;;;;;;;24.10;16.80;;;;;;;7.05;86.59;100900.81;116872;1197;22957;-65
2021/10/30 02:55:25;;;;;;;23.30;17.30;;;;;;;7.05;86.86;100899.48;116899;1198;22324;-65
2021/10/30 02:57:53;;;;;;;26.70;17.30;;;;;;;7.05;86.64;100902.02;116654;1199;138282;-65
2021/10/30 03:00:21;;;;;;;24.30;16.20;;;;;;;7.04;86.71;100904.68;116842;1198;22430;-65
2021/10/30 03:02:51;;;;;;;23.40;15.40;;;;;;;7.03;86.51;100908.09;116751;1198;139549;-66
2021/10/30 03:05:20;;;;;;;23.80;15.80;;;;;;;7.00;86.55;100904.23;116726;1199;23488;-65
2021/10/30 03:07:48;;;;;;;23.10;16.60;;;;;;;7.00;86.60;100900.02;116845;1198;22229;-66
2021/10/30 03:10:17;;;;;;;24.30;15.80;;;;;;;6.96;86.58;100905.00;116720;1192;138093;-65
2021/10/30 03:12:45;;;;;;;20.60;15.00;;;;;;;6.95;86.63;100902.40;116856;1198;23410;-66
2021/10/30 03:15:15;;;;;;;24.60;15.90;;;;;;;6.95;86.76;100902.83;116701;1198;139029;-65
2021/10/30 03:17:43;;;;;;;21.80;15.90;;;;;;;6.96;86.59;100908.84;116888;1198;23033;-65
2021/10/30 03:20:11;;;;;;;24.60;15.40;;;;;;;6.95;86.70;100909.98;116773;1193;139329;-64
2021/10/30 03:22:41;;;;;;;24.10;16.20;;;;;;;6.94;86.62;100909.57;116887;1198;22413;-65
2021/10/30 03:25:09;;;;;;;19.90;15.00;;;;;;;6.92;86.76;100908.36;116864;1184;22350;-65
2021/10/30 03:27:37;;;;;;;21.50;15.30;;;;;;;6.92;86.50;100906.15;116653;1199;138529;-65
2021/10/30 03:30:06;;;;;;;22.10;15.00;;;;;;;6.91;86.68;100902.16;116723;1199;23140;-65
2021/10/30 03:32:34;;;;;;;24.10;16.10;;;;;;;6.89;86.76;100907.18;116727;1198;139494;-65
2021/10/30 03:35:03;;;;;;;25.10;15.70;;;;;;;6.90;87.10;100906.52;116953;1198;23106;-65
2021/10/30 03:37:35;;;;;;;21.90;15.10;;;;;;;6.92;87.19;100909.53;116867;1198;22304;-64
2021/10/30 03:40:07;;;;;;;28.60;16.20;;;;;;;6.93;86.99;100909.52;116753;1198;138312;-65
2021/10/30 03:42:36;;;;;;;23.00;15.70;;;;;;;6.95;87.15;100912.54;116790;1183;22315;-65
2021/10/30 03:45:05;;;;;;;22.70;16.00;;;;;;;6.96;86.81;100917.26;116573;1198;138002;-64
2021/10/30 03:47:34;;;;;;;22.30;15.10;;;;;;;6.98;86.99;100917.35;116895;1198;22449;-65
2021/10/30 03:50:02;;;;;;;23.40;16.10;;;;;;;6.97;87.11;100914.84;116861;1198;22396;-64
2021/10/30 03:52:31;;;;;;;26.10;16.80;;;;;;;6.94;87.16;100911.36;116760;1198;138825;-65
2021/10/30 03:54:59;;;;;;;28.00;17.90;;;;;;;6.91;87.02;100915.41;116886;1198;22327;-64
2021/10/30 03:57:28;;;;;;;48.90;24.20;;;;;;;6.89;86.99;100910.73;116754;1198;138012;-64
2021/10/30 03:59:57;;;;;;;67.30;28.10;;;;;;;6.86;87.19;100911.04;116835;1198;22492;-65
2021/10/30 04:02:25;;;;;;;62.00;24.30;;;;;;;6.83;87.14;100909.43;116728;1198;139052;-65
2021/10/30 04:04:53;;;;;;;29.30;17.40;;;;;;;6.80;86.98;100909.27;116932;1199;22224;-64
2021/10/30 04:07:21;;;;;;;29.70;17.00;;;;;;;6.77;87.31;100910.95;116883;1192;22356;-64
2021/10/30 04:09:49;;;;;;;59.20;25.50;;;;;;;6.74;87.10;100908.59;116739;1199;138044;-65
2021/10/30 04:12:18;;;;;;;73.90;28.90;;;;;;;6.72;87.23;100909.45;116709;1199;22318;-64
2021/10/30 04:14:46;;;;;;;69.70;30.30;;;;;;;6.70;87.42;100903.48;116698;1198;138837;-65
2021/10/30 04:17:14;;;;;;;82.10;33.50;;;;;;;6.72;87.68;100904.41;116818;1192;23308;-64
2021/10/30 04:19:42;;;;;;;73.20;31.60;;;;;;;6.70;87.60;100901.16;116860;1192;23258;-65
2021/10/30 04:22:10;;;;;;;38.50;23.50;;;;;;;6.73;87.56;100904.38;116766;1198;138873;-65
2021/10/30 04:24:38;;;;;;;37.80;23.80;;;;;;;6.74;87.61;100903.55;116845;1198;22260;-64
2021/10/30 04:27:06;;;;;;;28.40;18.40;;;;;;;6.74;87.67;100902.59;116552;1199;138405;-64
2021/10/30 04:29:34;;;;;;;28.80;18.10;;;;;;;6.74;87.71;100899.89;116865;1193;22342;-67
2021/10/30 04:32:04;;;;;;;22.50;16.70;;;;;;;6.73;87.55;100898.75;116792;1198;22260;-65
2021/10/30 04:34:58;;;;;;;23.60;15.60;;;;;;;6.72;87.59;100903.66;116799;1197;138786;-65
2021/10/30 04:37:26;;;;;;;23.60;16.70;;;;;;;6.70;87.56;100904.60;116844;1198;22544;-65
2021/10/30 04:39:54;;;;;;;25.10;17.20;;;;;;;6.69;87.65;100909.39;115275;1192;138563;-66
2021/10/30 04:42:22;;;;;;;27.20;17.80;;;;;;;6.69;87.82;100908.92;112520;1192;22554;-65
2021/10/30 04:44:50;;;;;;;20.70;16.20;;;;;;;6.67;87.66;100905.66;116764;1198;139502;-66
2021/10/30 04:47:19;;;;;;;27.10;16.80;;;;;;;6.66;87.88;100910.15;116692;1199;23224;-64
2021/10/30 04:49:47;;;;;;;24.70;17.00;;;;;;;6.65;87.96;100906.18;116888;1198;22231;-65
2021/10/30 04:52:16;;;;;;;26.80;16.20;;;;;;;6.63;88.04;100906.98;116789;1198;138221;-64
2021/10/30 04:54:43;;;;;;;28.80;17.70;;;;;;;6.62;87.96;100910.32;116847;1198;22157;-65
2021/10/30 04:57:12;;;;;;;26.40;18.40;;;;;;;6.62;87.99;100908.77;116688;1198;137867;-65
2021/10/30 04:59:40;;;;;;;24.90;17.90;;;;;;;6.59;88.13;100907.70;116903;1192;22330;-65
2021/10/30 05:02:08;;;;;;;22.30;16.70;;;;;;;6.57;88.01;100908.82;116757;1199;22317;-65
2021/10/30 05:04:37;;;;;;;23.10;16.30;;;;;;;6.56;87.99;100909.59;116646;1198;139589;-65
2021/10/30 05:07:05;;;;;;;23.00;16.10;;;;;;;6.53;88.37;100907.40;116864;1198;23057;-64
2021/10/30 05:09:33;;;;;;;23.30;17.90;;;;;;;6.52;88.40;100906.84;116652;1199;137868;-65
2021/10/30 05:12:03;;;;;;;22.30;16.30;;;;;;;6.51;88.45;100906.68;116889;1198;22347;-65
2021/10/30 05:14:31;;;;;;;21.70;15.50;;;;;;;6.51;88.40;100909.05;116769;1198;137994;-65
2021/10/30 05:17:11;;;;;;;21.10;15.60;;;;;;;6.50;88.32;100912.71;116899;1198;23283;-65
2021/10/30 05:19:39;;;;;;;25.60;16.90;;;;;;;6.45;88.47;100912.94;116869;1198;22328;-64
2021/10/30 05:22:07;;;;;;;24.70;17.00;;;;;;;6.41;88.46;100912.57;116780;1195;138371;-64
2021/10/30 05:24:36;;;;;;;25.10;18.30;;;;;;;6.39;88.61;100917.67;116897;1192;22325;-64
2021/10/30 05:27:05;;;;;;;26.90;17.10;;;;;;;6.42;88.84;100919.16;116753;1184;137846;-68
2021/10/30 05:29:35;;;;;;;28.10;19.00;;;;;;;6.41;88.77;100921.27;116865;1198;22252;-65
2021/10/30 05:32:03;;;;;;;24.40;18.20;;;;;;;6.40;88.90;100921.47;116767;1199;22409;-66
2021/10/30 05:34:32;;;;;;;27.10;18.20;;;;;;;6.38;89.00;100921.58;116603;1200;137726;-66
2021/10/30 05:37:30;;;;;;;25.50;16.80;;;;;;;6.36;89.03;100922.38;116719;1199;22276;-64
2021/10/30 05:39:59;;;;;;;31.40;17.40;;;;;;;6.36;89.21;100925.39;116658;1198;139224;-65
2021/10/30 05:42:28;;;;;;;25.10;16.80;;;;;;;6.37;89.29;100925.98;116849;1199;23129;-65
2021/10/30 05:44:56;;;;;;;25.80;17.70;;;;;;;6.39;89.20;100932.63;116749;1198;138427;-65
2021/10/30 05:47:24;;;;;;;27.40;17.80;;;;;;;6.40;89.35;100937.55;116775;1199;22892;-65
2021/10/30 05:49:53;;;;;;;23.20;16.60;;;;;;;6.42;89.47;100937.90;116868;1198;22405;-65
2021/10/30 05:52:21;;;;;;;28.50;18.00;;;;;;;6.42;89.39;100939.65;116655;1199;138562;-66
2021/10/30 05:54:49;;;;;;;21.20;16.00;;;;;;;6.43;89.60;100941.77;116859;1198;22327;-65
2021/10/30 05:57:17;;;;;;;26.60;15.60;;;;;;;6.43;89.33;100939.91;116712;1198;138881;-63
2021/10/30 05:59:48;;;;;;;24.80;16.90;;;;;;;6.43;89.38;100942.65;116696;1200;22353;-65
2021/10/30 06:02:16;;;;;;;22.20;16.30;;;;;;;6.41;89.47;100948.09;116732;1198;138686;-65
2021/10/30 06:04:45;;;;;;;25.30;18.20;;;;;;;6.40;89.65;100945.55;116816;1199;23149;-66
2021/10/30 06:07:13;;;;;;;26.30;16.70;;;;;;;6.39;89.84;100952.48;116800;1198;23010;-66
2021/10/30 06:09:41;;;;;;;34.90;21.60;;;;;;;6.42;89.96;100954.02;116734;1198;138931;-64
2021/10/30 06:12:10;;;;;;;25.70;18.60;;;;;;;6.43;89.59;100957.58;116859;1197;22331;-65
2021/10/30 06:14:38;;;;;;;24.10;16.40;;;;;;;6.43;89.61;100955.77;116687;1199;138059;-65
2021/10/30 06:17:07;;;;;;;23.60;16.30;;;;;;;6.43;89.77;100957.10;116726;1199;24880;-65
2021/10/30 06:19:35;;;;;;;25.20;16.40;;;;;;;6.43;89.93;100955.82;116854;1199;22297;-64
2021/10/30 06:22:03;;;;;;;25.50;16.50;;;;;;;6.44;90.03;100955.20;116664;1199;137835;-65
2021/10/30 06:24:32;;;;;;;24.00;16.00;;;;;;;6.46;89.94;100955.23;116786;1199;22991;-65
2021/10/30 06:27:00;;;;;;;23.90;17.10;;;;;;;6.45;89.93;100952.26;116690;1199;138546;-64
2021/10/30 06:29:29;;;;;;;23.20;17.80;;;;;;;6.45;89.98;100954.27;116734;1199;22297;-65
2021/10/30 06:31:57;;;;;;;26.10;17.80;;;;;;;6.47;90.15;100956.61;116788;1199;22183;-65
2021/10/30 06:34:25;;;;;;;34.10;19.90;;;;;;;6.48;90.31;100954.32;116641;1193;138111;-65
2021/10/30 06:36:53;;;;;;;29.80;18.30;;;;;;;6.52;90.34;100955.95;116709;1199;22419;-65
2021/10/30 06:39:22;;;;;;;28.60;19.80;;;;;;;6.54;90.50;100954.02;116723;1199;139159;-58
2021/10/30 06:41:52;;;;;;;31.70;20.80;;;;;;;6.57;90.41;100949.13;116761;1199;22929;-59
2021/10/30 06:44:20;;;;;;;31.30;21.60;;;;;;;6.60;90.25;100954.48;116568;1199;139083;-58
2021/10/30 06:46:51;;;;;;;32.60;22.00;;;;;;;6.64;90.42;100963.89;116732;1199;22244;-58
2021/10/30 06:49:19;;;;;;;31.60;22.20;;;;;;;6.67;90.45;100958.83;116638;1199;23692;-59
2021/10/30 06:51:48;;;;;;;33.30;20.60;;;;;;;6.66;90.26;100957.98;116647;1199;139214;-59
2021/10/30 06:54:16;;;;;;;39.50;23.00;;;;;;;6.66;90.36;100959.86;116803;1199;22293;-59
2021/10/30 06:56:45;;;;;;;39.00;23.50;;;;;;;6.63;90.46;100952.42;116653;1199;138819;-59
2021/10/30 06:59:13;;;;;;;37.20;24.80;;;;;;;6.68;90.38;100958.00;116674;1199;22187;-59
2021/10/30 07:01:42;;;;;;;27.60;19.30;;;;;;;6.64;90.47;100952.31;116859;1199;22732;-59
2021/10/30 07:04:11;;;;;;;29.80;20.10;;;;;;;6.69;90.48;100958.38;116715;1199;138499;-59
2021/10/30 07:06:39;;;;;;;30.10;20.00;;;;;;;6.68;90.33;100959.63;116705;1199;23120;-59
2021/10/30 07:09:07;;;;;;;26.10;19.10;;;;;;;6.63;90.44;100958.75;116693;1199;138114;-59
2021/10/30 07:11:35;;;;;;;30.30;19.60;;;;;;;6.65;90.53;100962.06;116733;1199;22403;-59
2021/10/30 07:14:22;;;;;;;24.50;17.40;;;;;;;6.66;90.62;100961.98;116708;1198;138289;-59
2021/10/30 07:17:10;;;;;;;25.00;16.00;;;;;;;6.66;90.48;100967.82;116944;1198;22337;-59
2021/10/30 07:19:38;;;;;;;23.50;14.90;;;;;;;6.65;90.46;100966.67;116885;1198;22504;-59
2021/10/30 07:22:06;;;;;;;21.10;14.40;;;;;;;6.63;90.34;100971.77;116771;1198;137929;-59
2021/10/30 07:24:35;;;;;;;17.50;13.40;;;;;;;6.61;90.28;100974.01;116803;1199;23371;-59
2021/10/30 07:27:03;;;;;;;19.00;13.60;;;;;;;6.57;90.06;100972.02;116729;1198;138031;-58
2021/10/30 07:29:33;;;;;;;19.30;15.60;;;;;;;6.53;89.90;100970.55;116805;1198;22528;-58
2021/10/30 07:32:01;;;;;;;16.60;13.20;;;;;;;6.51;89.85;100970.41;116880;1198;22319;-58
2021/10/30 07:34:29;;;;;;;18.30;14.40;;;;;;;6.49;90.03;100978.52;116756;1198;138053;-58
2021/10/30 07:36:57;;;;;;;18.30;13.20;;;;;;;6.46;89.86;100979.09;116763;1199;22359;-58
2021/10/30 07:39:25;;;;;;;25.20;17.10;;;;;;;6.43;89.74;100979.64;116690;1199;138299;-64
2021/10/30 07:41:54;;;;;;;23.20;17.30;;;;;;;6.38;89.85;100977.30;116885;1198;22325;-64
2021/10/30 07:44:21;;;;;;;17.60;13.30;;;;;;;6.36;89.81;100976.48;116772;1198;138144;-64
2021/10/30 07:46:50;;;;;;;21.00;16.00;;;;;;;6.37;89.69;100976.00;116993;1198;23009;-67
2021/10/30 07:49:18;;;;;;;20.10;14.20;;;;;;;6.38;90.00;100976.39;116855;1198;22330;-64
2021/10/30 07:51:46;;;;;;;20.30;13.60;;;;;;;6.39;89.87;100976.14;116752;1198;137926;-64
2021/10/30 07:54:14;;;;;;;20.40;14.00;;;;;;;6.35;89.64;100984.40;116869;1199;22434;-65
2021/10/30 07:56:42;;;;;;;26.80;16.00;;;;;;;6.30;89.44;100986.02;116771;1198;137987;-64
2021/10/30 07:59:10;;;;;;;26.30;15.40;;;;;;;6.26;89.67;100990.47;116881;1198;22339;-64
2021/10/30 08:01:38;;;;;;;23.40;15.60;;;;;;;6.25;89.58;100989.80;116888;1198;22961;-64
2021/10/30 08:04:10;;;;;;;21.20;14.60;;;;;;;6.25;89.59;100991.09;116801;1198;138364;-65
2021/10/30 08:06:39;;;;;;;22.00;16.20;;;;;;;6.26;89.67;100992.27;116876;1198;23019;-65
2021/10/30 08:09:07;;;;;;;20.70;15.30;;;;;;;6.27;89.70;100996.95;116674;1199;137807;-65
2021/10/30 08:11:35;;;;;;;19.80;15.20;;;;;;;6.28;89.87;100993.79;116782;1199;23221;-65
2021/10/30 08:14:04;;;;;;;17.30;13.80;;;;;;;6.28;89.64;100993.75;116938;1198;22389;-65
2021/10/30 08:16:32;;;;;;;21.10;14.70;;;;;;;6.27;89.74;100992.32;116657;1199;137745;-65
2021/10/30 08:19:00;;;;;;;26.80;16.20;;;;;;;6.25;89.43;100995.55;116692;1199;22406;-65
2021/10/30 08:21:28;;;;;;;25.40;16.10;;;;;;;6.25;89.59;100997.05;116764;1199;137768;-65
2021/10/30 08:23:57;;;;;;;22.00;15.70;;;;;;;6.26;89.79;100991.39;116817;1199;22377;-65
2021/10/30 08:26:25;;;;;;;21.80;16.20;;;;;;;6.28;89.86;100994.20;116728;1199;138840;-65
2021/10/30 08:28:54;;;;;;;23.80;16.00;;;;;;;6.31;89.95;100997.77;116847;1198;22261;-65
2021/10/30 08:31:22;;;;;;;23.20;15.90;;;;;;;6.33;90.06;100999.71;116910;1193;23483;-65
2021/10/30 08:33:52;;;;;;;19.60;15.10;;;;;;;6.33;89.97;100995.10;116758;1198;139200;-65
2021/10/30 08:36:20;;;;;;;23.40;16.20;;;;;;;6.33;89.79;100997.52;116867;1198;22948;-65
2021/10/30 08:38:48;;;;;;;25.20;16.40;;;;;;;6.32;89.62;101000.54;116708;1199;138376;-64
2021/10/30 08:41:17;;;;;;;21.30;15.60;;;;;;;6.31;89.83;100995.41;116864;1199;23276;-64
2021/10/30 08:43:45;;;;;;;21.00;16.10;;;;;;;6.32;89.45;100997.34;116913;1199;22420;-64
2021/10/30 08:46:13;;;;;;;23.50;15.90;;;;;;;6.29;89.53;100992.77;116493;1199;138182;-65
2021/10/30 08:48:43;;;;;;;25.90;17.40;;;;;;;6.25;89.72;100995.26;116820;1199;22528;-66
2021/10/30 08:51:11;;;;;;;23.50;17.60;;;;;;;6.26;89.83;100991.48;116701;1198;139359;-65
2021/10/30 08:53:39;;;;;;;26.10;16.90;;;;;;;6.25;89.74;100986.77;116852;1193;22343;-65
2021/10/30 08:56:08;;;;;;;25.40;17.70;;;;;;;6.21;89.74;100990.06;116887;1198;22141;-65
2021/10/30 08:58:36;;;;;;;23.40;16.00;;;;;;;6.19;89.62;100986.85;116759;1198;137665;-65
2021/10/30 09:01:08;;;;;;;22.70;16.90;;;;;;;6.18;89.82;100985.88;116852;1198;22321;-66
2021/10/30 09:03:38;;;;;;;27.20;18.10;;;;;;;6.21;90.05;100987.14;116580;1199;138674;-65
2021/10/30 09:06:06;;;;;;;27.80;16.90;;;;;;;6.24;90.23;100986.92;116897;1198;23364;-66
2021/10/30 09:08:35;;;;;;;23.00;17.10;;;;;;;6.26;90.23;100989.48;116689;1198;137806;-65
2021/10/30 09:11:05;;;;;;;31.60;18.40;;;;;;;6.27;90.29;100988.90;116884;1198;22335;-65
2021/10/30 09:13:33;;;;;;;23.80;17.10;;;;;;;6.29;90.14;100991.17;116662;1199;22324;-66
2021/10/30 09:16:01;;;;;;;23.50;17.50;;;;;;;6.32;90.24;100987.17;116613;1199;137926;-65
2021/10/30 09:18:37;;;;;;;21.50;16.20;;;;;;;6.34;90.16;100985.27;116834;1199;22402;-65
2021/10/30 09:21:07;;;;;;;18.50;15.10;;;;;;;6.32;89.77;100985.14;116654;1193;138401;-66
2021/10/30 09:23:37;;;;;;;22.60;15.10;;;;;;;6.28;90.07;100990.51;116744;1199;22324;-65
2021/10/30 09:26:06;;;;;;;21.30;15.90;;;;;;;6.26;89.92;100990.41;116786;1199;23054;-66
2021/10/30 09:28:36;;;;;;;22.50;16.00;;;;;;;6.28;89.85;100988.59;116698;1200;138144;-66
2021/10/30 09:31:06;;;;;;;20.40;15.90;;;;;;;6.27;90.01;100992.91;116795;1199;22305;-66
2021/10/30 09:33:49;;;;;;;23.20;17.30;;;;;;;6.29;90.17;100990.44;116590;1199;138167;-65
2021/10/30 09:36:17;;;;;;;20.90;13.80;;;;;;;6.33;90.13;100989.02;116758;1199;22324;-66
2021/10/30 09:38:47;;;;;;;21.90;14.90;;;;;;;6.33;89.96;100985.80;116513;1194;138720;-66
2021/10/30 09:41:25;;;;;;;18.70;13.80;;;;;;;6.29;89.96;100990.05;116818;1199;22329;-65
2021/10/30 09:44:00;;;;;;;24.60;16.50;;;;;;;6.26;89.87;100990.68;116815;1193;22412;-65
2021/10/30 09:46:30;;;;;;;20.70;15.30;;;;;;;6.26;89.93;100982.90;116680;1199;137845;-65
2021/10/30 09:48:59;;;;;;;16.60;13.10;;;;;;;6.24;90.15;100978.27;116620;1199;22409;-65
2021/10/30 09:51:31;;;;;;;19.00;14.70;;;;;;;6.29;90.08;100980.27;116618;1199;139109;-65
2021/10/30 09:54:01;;;;;;;21.30;13.80;;;;;;;6.32;89.90;100979.18;116810;1189;23018;-65
2021/10/30 09:56:40;;;;;;;16.50;12.90;;;;;;;6.38;90.13;100976.67;116636;1194;138973;-65
2021/10/30 09:59:15;;;;;;;21.40;16.00;;;;;;;6.44;90.13;100982.44;116699;1199;23114;-65
2021/10/30 10:01:44;;;;;;;26.60;20.20;;;;;;;6.48;90.07;100979.89;116759;1199;23475;-65
2021/10/30 10:04:14;;;;;;;22.50;17.20;;;;;;;6.51;90.30;100973.70;116640;1199;139044;-65
2021/10/30 10:06:42;;;;;;;20.00;15.70;;;;;;;6.57;90.09;100975.80;116689;1199;22323;-66
2021/10/30 10:09:14;;;;;;;21.10;15.90;;;;;;;6.60;89.92;100976.50;116669;1186;139520;-65
2021/10/30 10:11:46;;;;;;;24.70;17.60;;;;;;;6.63;89.98;100979.02;116732;1199;23117;-65
2021/10/30 10:14:20;;;;;;;22.20;14.70;;;;;;;6.66;89.77;100979.56;116774;1198;23309;-65
2021/10/30 10:16:51;;;;;;;21.60;15.10;;;;;;;6.67;89.67;100978.08;116768;1198;140005;-65
2021/10/30 10:19:19;;;;;;;16.60;12.80;;;;;;;6.66;89.50;100973.56;116876;1199;22903;-65
2021/10/30 10:21:53;;;;;;;15.10;12.60;;;;;;;6.65;89.17;100973.89;116735;1198;139288;-65
2021/10/30 10:24:32;;;;;;;18.70;13.60;;;;;;;6.63;89.14;100970.73;116840;1198;23130;-65
2021/10/30 10:27:03;;;;;;;18.60;13.00;;;;;;;6.61;89.12;100972.22;116670;1199;138349;-65
2021/10/30 10:29:44;;;;;;;18.50;13.40;;;;;;;6.62;89.23;100974.06;116930;1198;22340;-65
2021/10/30 10:32:25;;;;;;;20.60;14.90;;;;;;;6.66;89.37;100974.83;116887;1198;22310;-65
2021/10/30 10:35:03;;;;;;;20.60;14.90;;;;;;;6.71;89.49;100971.83;116738;1198;139414;-65
2021/10/30 10:37:31;;;;;;;17.50;14.00;;;;;;;6.73;89.27;100967.22;116888;1198;22246;-65
2021/10/30 10:40:00;;;;;;;19.20;13.90;;;;;;;6.78;89.20;100966.49;116787;1198;138149;-65
2021/10/30 10:42:34;;;;;;;18.60;14.40;;;;;;;6.80;89.14;100966.95;116783;1199;22305;-64
2021/10/30 10:45:15;;;;;;;22.00;15.40;;;;;;;6.82;89.24;100964.48;116676;1198;139080;-65
2021/10/30 10:47:49;;;;;;;29.30;19.40;;;;;;;6.84;89.17;100964.78;116937;1193;22373;-64
2021/10/30 10:50:26;;;;;;;26.60;20.20;;;;;;;6.85;89.02;100962.66;116886;1198;22230;-64
2021/10/30 10:53:05;;;;;;;27.50;19.80;;;;;;;6.82;88.78;100959.93;116669;1199;137799;-64
2021/10/30 10:55:36;;;;;;;23.30;18.40;;;;;;;6.77;88.70;100958.82;116871;1193;22313;-64
2021/10/30 10:58:07;;;;;;;26.80;19.60;;;;;;;6.75;88.65;100961.11;116773;1198;138887;-64
2021/10/30 11:00:36;;;;;;;23.40;14.40;;;;;;;6.75;88.64;100958.19;116781;1199;22168;-64
2021/10/30 11:03:04;;;;;;;18.50;14.70;;;;;;;6.76;88.89;100953.41;116656;1199;138912;-64
2021/10/30 11:05:33;;;;;;;24.00;15.80;;;;;;;6.75;88.67;100950.95;116926;1198;22139;-65
2021/10/30 11:08:25;;;;;;;21.90;14.60;;;;;;;6.75;88.85;100946.27;116863;1198;23663;-65
2021/10/30 11:11:10;;;;;;;23.40;16.80;;;;;;;6.78;88.74;100948.13;116745;1198;137892;-65
2021/10/30 11:13:45;;;;;;;22.60;15.80;;;;;;;6.79;88.70;100943.39;116668;1199;23375;-65
2021/10/30 11:16:13;;;;;;;29.70;19.00;;;;;;;6.82;88.81;100945.21;116663;1199;138480;-65
2021/10/30 11:21:19;;;;;;;44.30;30.80;;;;;;;6.87;88.87;100936.73;116599;1198;139210;-67